Time;durP1;ratioP1;P1;durP2;ratioP2;P2;SDS_P1;SDS_P2;PMS_P1;PMS_P2;Temp;Humidity;BMP_temperature;BMP_pressure;BME280_temperature;BME280_humidity;BME280_pressure;Samples;Min_cycle;Max_cycle;Signal;HPM_P1;HPM_P2
2021/10/15 00:01:39;;;;;;;7.50;2.60;;;;;;;16.23;70.39;101584.97;5010282;28;20169;-80
2021/10/15 00:04:05;;;;;;;7.00;2.30;;;;;;;16.37;70.02;101570.72;4979966;28;20050;-79
2021/10/15 00:06:30;;;;;;;7.93;2.50;;;;;;;16.40;72.42;101582.03;4998862;28;20027;-80
2021/10/15 00:08:55;;;;;;;9.45;2.70;;;;;;;16.41;73.56;101567.72;4995320;28;20118;-80
2021/10/15 00:11:21;;;;;;;6.05;2.65;;;;;;;16.19;75.77;101562.97;4982502;28;20031;-79
2021/10/15 00:13:46;;;;;;;6.75;3.20;;;;;;;16.02;78.35;101559.56;4995900;28;20033;-79
2021/10/15 00:16:12;;;;;;;9.15;3.10;;;;;;;16.36;78.72;101569.00;4998590;28;20145;-79
2021/10/15 00:18:37;;;;;;;10.20;3.55;;;;;;;16.29;80.98;101566.75;4996787;28;20034;-80
2021/10/15 00:21:03;;;;;;;9.70;2.90;;;;;;;16.24;82.42;101570.69;4993083;28;20555;-80
2021/10/15 00:23:28;;;;;;;10.32;3.67;;;;;;;16.28;82.64;101556.16;4993144;28;20480;-80
2021/10/15 00:25:54;;;;;;;8.63;3.33;;;;;;;15.99;85.09;101546.44;4993411;28;20050;-81
2021/10/15 00:28:19;;;;;;;8.93;3.70;;;;;;;16.22;84.59;101562.78;5014733;23;20058;-83
2021/10/15 00:30:44;;;;;;;9.02;3.67;;;;;;;16.26;84.42;101560.75;5012437;28;20046;-84
2021/10/15 00:33:10;;;;;;;10.43;3.63;;;;;;;16.35;83.48;101556.63;5013277;28;20025;-83
2021/10/15 00:35:35;;;;;;;13.45;4.25;;;;;;;16.21;83.26;101544.19;5016602;28;20387;-84
2021/10/15 00:38:01;;;;;;;10.82;3.95;;;;;;;16.41;82.33;101534.88;5016522;28;20022;-81
2021/10/15 00:40:45;;;;;;;10.25;4.00;;;;;;;16.31;81.53;101531.94;4998619;28;20028;-81
2021/10/15 00:43:11;;;;;;;10.00;4.10;;;;;;;16.46;80.37;101535.41;4998491;28;20029;-84
2021/10/15 00:45:36;;;;;;;8.75;3.30;;;;;;;16.28;80.00;101533.03;5016405;28;20037;-82
2021/10/15 00:48:01;;;;;;;11.10;3.50;;;;;;;16.25;80.08;101530.56;5016776;28;20026;-82
2021/10/15 00:50:27;;;;;;;10.50;3.35;;;;;;;16.22;80.33;101524.56;5017576;28;20040;-81
2021/10/15 00:52:52;;;;;;;9.00;3.70;;;;;;;16.32;79.98;101520.31;5017666;28;20042;-82
2021/10/15 00:55:18;;;;;;;14.48;3.53;;;;;;;16.21;80.27;101536.19;5019699;28;20064;-81
2021/10/15 00:57:43;;;;;;;8.95;3.38;;;;;;;16.14;80.42;101515.25;5019682;28;20060;-82
2021/10/15 01:00:09;;;;;;;8.43;3.45;;;;;;;16.31;80.41;101518.59;5003222;28;20042;-85
2021/10/15 01:02:35;;;;;;;10.48;4.07;;;;;;;16.31;80.51;101510.59;5021419;28;20030;-82
2021/10/15 01:05:00;;;;;;;8.30;3.10;;;;;;;16.19;80.88;101512.28;5016114;28;20121;-81
2021/10/15 01:07:26;;;;;;;9.68;3.30;;;;;;;16.21;80.82;101514.84;4999124;28;20065;-81
2021/10/15 01:09:52;;;;;;;9.23;3.45;;;;;;;16.15;80.41;101492.94;5015822;28;20052;-81
2021/10/15 01:12:18;;;;;;;9.35;3.20;;;;;;;16.33;79.93;101491.81;4998006;28;20042;-80
2021/10/15 01:14:43;;;;;;;9.68;3.03;;;;;;;16.14;79.68;101504.59;4998436;28;20370;-83
2021/10/15 01:17:09;;;;;;;9.93;3.08;;;;;;;16.24;79.03;101488.78;5015760;28;20034;-81
2021/10/15 01:19:34;;;;;;;6.38;3.20;;;;;;;16.11;79.93;101509.25;4997934;28;20026;-81
2021/10/15 01:22:04;;;;;;;7.47;3.13;;;;;;;16.21;79.60;101491.66;5015873;28;20092;-82
2021/10/15 01:24:31;;;;;;;7.70;3.47;;;;;;;16.37;78.62;101487.97;4998809;28;20026;-83
2021/10/15 01:27:01;;;;;;;12.73;3.78;;;;;;;16.17;79.28;101495.50;5015632;28;20232;-80
2021/10/15 01:29:26;;;;;;;8.90;3.20;;;;;;;16.38;79.20;101481.69;4998813;28;20487;-81
2021/10/15 01:31:52;;;;;;;9.15;4.05;;;;;;;16.04;80.47;101491.00;5016222;28;20026;-81
2021/10/15 01:34:17;;;;;;;12.80;3.20;;;;;;;15.89;81.87;101471.47;5015453;28;20029;-83
2021/10/15 01:36:43;;;;;;;11.65;3.58;;;;;;;15.97;81.04;101486.13;5015348;28;20461;-82
2021/10/15 01:39:08;;;;;;;8.50;3.25;;;;;;;15.90;79.76;101475.00;5015034;28;20021;-81
2021/10/15 01:41:33;;;;;;;7.45;3.03;;;;;;;15.89;78.99;101492.81;5015005;28;20030;-82
2021/10/15 01:43:59;;;;;;;9.20;3.30;;;;;;;16.04;77.51;101477.66;4997433;28;20026;-81
2021/10/15 01:46:24;;;;;;;7.32;3.50;;;;;;;15.87;76.81;101480.53;5013920;28;20036;-81
2021/10/15 01:48:50;;;;;;;9.15;2.70;;;;;;;15.93;76.36;101478.31;5014806;28;20026;-81
2021/10/15 01:51:15;;;;;;;6.90;3.22;;;;;;;16.02;75.42;101471.56;5014774;28;20053;-80
2021/10/15 01:53:41;;;;;;;8.32;2.92;;;;;;;15.98;75.75;101471.84;5014797;28;20105;-81
2021/10/15 01:56:08;;;;;;;5.80;2.78;;;;;;;16.13;75.30;101467.34;5014637;28;20034;-81
2021/10/15 01:58:33;;;;;;;9.73;3.28;;;;;;;16.06;75.68;101483.75;5014742;28;20030;-81
2021/10/15 02:00:58;;;;;;;13.05;3.45;;;;;;;16.20;75.24;101479.28;4997114;28;20448;-81
2021/10/15 02:03:25;;;;;;;7.72;3.20;;;;;;;15.99;75.86;101469.09;5014612;28;20022;-81
2021/10/15 02:05:50;;;;;;;7.68;3.00;;;;;;;15.86;76.91;101454.84;4997246;28;20057;-84
2021/10/15 02:08:16;;;;;;;9.52;3.30;;;;;;;15.93;75.99;101465.00;5014638;28;20555;-82
2021/10/15 02:11:00;;;;;;;10.95;2.78;;;;;;;16.12;75.20;101455.81;5014348;28;20392;-84
2021/10/15 02:13:26;;;;;;;8.75;3.03;;;;;;;15.85;75.79;101455.78;5014324;28;20417;-82
2021/10/15 02:15:51;;;;;;;8.63;3.38;;;;;;;16.09;75.08;101452.47;5014410;28;20036;-83
2021/10/15 02:18:17;;;;;;;6.70;2.70;;;;;;;16.28;74.49;101431.63;5014509;28;20463;-83
2021/10/15 02:20:43;;;;;;;7.03;3.33;;;;;;;16.03;75.94;101433.28;5014696;28;20388;-81
2021/10/15 02:23:08;;;;;;;9.10;3.08;;;;;;;16.28;74.78;101431.63;4980987;28;20018;-83
2021/10/15 02:25:33;;;;;;;10.10;3.45;;;;;;;16.30;74.39;101427.00;5014701;28;20519;-83
2021/10/15 02:27:59;;;;;;;10.10;3.17;;;;;;;16.35;74.38;101425.84;5014477;28;20054;-84
2021/10/15 02:30:24;;;;;;;10.55;3.42;;;;;;;16.38;73.71;101413.13;5014135;28;20057;-83
2021/10/15 02:32:50;;;;;;;9.77;3.42;;;;;;;16.17;75.12;101423.47;5014154;28;20053;-83
2021/10/15 02:35:15;;;;;;;8.70;3.17;;;;;;;16.09;75.52;101424.00;5014037;28;20026;-82
2021/10/15 02:37:41;;;;;;;9.45;2.88;;;;;;;16.04;75.40;101410.97;5014213;28;20018;-82
2021/10/15 02:40:07;;;;;;;8.95;2.83;;;;;;;15.94;75.82;101416.03;5013877;28;20358;-81
2021/10/15 02:42:33;;;;;;;7.53;3.47;;;;;;;16.22;74.95;101400.00;4996427;28;20041;-82
2021/10/15 02:44:58;;;;;;;8.63;3.33;;;;;;;16.00;75.83;101396.13;5013947;28;20389;-81
2021/10/15 02:47:24;;;;;;;9.55;3.40;;;;;;;15.94;75.74;101401.81;5014067;28;20101;-85
2021/10/15 02:49:49;;;;;;;7.35;3.40;;;;;;;16.31;74.25;101411.84;5013685;28;20373;-81
2021/10/15 02:52:16;;;;;;;14.70;3.45;;;;;;;16.04;74.43;101397.63;5013855;28;20072;-81
2021/10/15 02:54:41;;;;;;;7.82;3.08;;;;;;;16.02;74.82;101404.03;5013722;28;20089;-81
2021/10/15 02:57:07;;;;;;;7.80;3.33;;;;;;;16.17;74.84;101400.31;5013627;28;20029;-83
2021/10/15 02:59:32;;;;;;;9.45;2.95;;;;;;;15.90;75.57;101397.66;5014006;28;20044;-82
2021/10/15 03:01:58;;;;;;;9.88;3.30;;;;;;;16.08;75.67;101406.28;5013575;28;20018;-81
2021/10/15 03:04:23;;;;;;;12.27;3.50;;;;;;;16.13;75.38;101392.63;5013551;28;20030;-81
2021/10/15 03:06:49;;;;;;;7.10;2.95;;;;;;;16.19;74.78;101410.91;5014283;28;20026;-81
2021/10/15 03:09:14;;;;;;;10.73;3.35;;;;;;;15.87;75.54;101389.88;5013454;28;20554;-81
2021/10/15 03:11:40;;;;;;;8.38;2.97;;;;;;;16.21;75.20;101402.78;5013315;28;20032;-80
2021/10/15 03:14:05;;;;;;;7.90;2.92;;;;;;;16.13;75.61;101400.63;5013238;28;20026;-81
2021/10/15 03:16:31;;;;;;;10.40;3.08;;;;;;;16.14;76.00;101397.00;5013318;28;20030;-80
2021/10/15 03:18:56;;;;;;;10.57;3.28;;;;;;;16.24;75.23;101397.25;5013437;28;20032;-81
2021/10/15 03:21:21;;;;;;;10.30;2.97;;;;;;;15.91;76.35;101394.03;5013440;28;20080;-81
2021/10/15 03:23:47;;;;;;;8.10;3.15;;;;;;;15.75;76.24;101383.53;5013298;28;20022;-81
2021/10/15 03:26:13;;;;;;;10.70;3.47;;;;;;;16.03;75.37;101385.25;5013015;28;20080;-85
2021/10/15 03:28:38;;;;;;;9.85;3.20;;;;;;;15.96;76.16;101370.56;5012901;28;20056;-84
2021/10/15 03:31:03;;;;;;;7.93;3.10;;;;;;;15.86;76.83;101381.00;5013250;28;20046;-84
2021/10/15 03:33:29;;;;;;;9.57;4.68;;;;;;;15.80;76.90;101384.94;5013969;28;20157;-85
2021/10/15 03:35:54;;;;;;;11.15;3.90;;;;;;;16.11;76.26;101365.19;5012897;28;20022;-85
2021/10/15 03:38:20;;;;;;;7.57;3.35;;;;;;;16.06;76.96;101379.72;5013097;28;20030;-86
2021/10/15 03:40:45;;;;;;;12.90;3.95;;;;;;;16.12;75.71;101372.22;5012945;28;20022;-82
2021/10/15 03:43:11;;;;;;;10.93;3.65;;;;;;;15.91;76.44;101378.03;5012203;28;20034;-82
2021/10/15 03:45:36;;;;;;;10.32;3.55;;;;;;;16.00;76.61;101387.28;5012797;28;20469;-82
2021/10/15 03:48:02;;;;;;;9.93;3.30;;;;;;;15.86;77.19;101380.16;4995377;28;20034;-82
2021/10/15 03:50:27;;;;;;;13.07;3.63;;;;;;;16.06;77.18;101387.72;4995201;28;20487;-81
2021/10/15 03:52:53;;;;;;;9.32;3.45;;;;;;;15.81;77.79;101389.31;5012916;28;20053;-82
2021/10/15 03:55:18;;;;;;;10.48;4.10;;;;;;;15.87;78.05;101385.41;5012866;28;20080;-80
2021/10/15 03:57:44;;;;;;;8.80;3.53;;;;;;;15.79;78.08;101383.25;5012784;28;20092;-81
2021/10/15 04:00:13;;;;;;;10.25;3.65;;;;;;;16.03;76.94;101384.41;5012766;28;20026;-85
2021/10/15 04:02:39;;;;;;;8.52;3.50;;;;;;;15.67;78.47;101387.56;5012825;28;20381;-81
2021/10/15 04:05:06;;;;;;;12.55;3.78;;;;;;;15.68;77.81;101372.44;5012534;28;20497;-81
2021/10/15 04:07:31;;;;;;;11.15;3.95;;;;;;;15.81;77.54;101389.31;5012680;28;20026;-83
2021/10/15 04:09:57;;;;;;;10.63;3.72;;;;;;;15.64;78.16;101392.25;5015969;28;20036;-81
2021/10/15 04:12:22;;;;;;;10.75;4.32;;;;;;;15.95;77.73;101392.88;5016968;28;20037;-83
2021/10/15 04:14:48;;;;;;;12.15;4.07;;;;;;;15.85;77.64;101381.09;5016829;28;20022;-82
2021/10/15 04:17:13;;;;;;;12.18;3.78;;;;;;;16.28;75.80;101382.72;5017330;28;20029;-81
2021/10/15 04:19:39;;;;;;;12.48;3.88;;;;;;;15.95;77.28;101385.72;4998778;28;20488;-82
2021/10/15 04:22:04;;;;;;;18.55;4.50;;;;;;;15.67;79.61;101378.72;4999075;28;20049;-83
2021/10/15 04:24:30;;;;;;;19.15;4.57;;;;;;;15.37;82.32;101385.97;5017127;28;20021;-81
2021/10/15 04:26:55;;;;;;;11.82;5.32;;;;;;;15.10;85.98;101384.13;5015640;23;20069;-81
2021/10/15 04:29:21;;;;;;;17.08;5.32;;;;;;;15.01;88.50;101380.25;4996849;28;20050;-83
2021/10/15 04:31:46;;;;;;;14.70;5.80;;;;;;;14.78;90.90;101394.97;4996866;28;20112;-79
2021/10/15 04:34:12;;;;;;;12.73;6.00;;;;;;;14.44;94.10;101393.44;4996874;28;20030;-80
2021/10/15 04:36:37;;;;;;;13.70;6.03;;;;;;;14.08;97.43;101386.69;4996500;28;20030;-81
2021/10/15 04:39:03;;;;;;;12.13;5.95;;;;;;;14.48;97.77;101391.41;4963082;28;20019;-82
2021/10/15 04:41:29;;;;;;;12.10;6.35;;;;;;;13.98;100.00;101385.53;4996945;28;20042;-85
2021/10/15 04:43:56;;;;;;;15.15;6.82;;;;;;;14.24;100.00;101391.09;4997055;28;20034;-79
2021/10/15 04:46:21;;;;;;;17.70;7.35;;;;;;;14.20;100.00;101395.75;4979234;28;20037;-79
2021/10/15 04:48:47;;;;;;;13.80;6.72;;;;;;;14.12;100.00;101387.38;4996531;28;20026;-78
2021/10/15 04:51:12;;;;;;;14.18;6.28;;;;;;;14.31;100.00;101376.47;4996188;28;20120;-79
2021/10/15 04:53:38;;;;;;;13.90;5.85;;;;;;;14.16;100.00;101380.94;4996262;28;20029;-79
2021/10/15 04:56:03;;;;;;;11.98;5.82;;;;;;;14.02;100.00;101387.94;4996162;28;20030;-84
2021/10/15 04:58:29;;;;;;;11.80;5.80;;;;;;;14.08;100.00;101381.38;4996528;28;20030;-81
2021/10/15 05:00:54;;;;;;;12.38;6.63;;;;;;;13.79;100.00;101389.28;4996740;28;20081;-85
2021/10/15 05:03:20;;;;;;;9.77;6.43;;;;;;;13.95;100.00;101387.44;4979343;28;20030;-81
2021/10/15 05:05:45;;;;;;;10.93;5.97;;;;;;;13.99;100.00;101385.44;4996024;28;20034;-80
2021/10/15 05:08:13;;;;;;;10.32;5.45;;;;;;;14.03;100.00;101373.69;4996218;28;20018;-81
2021/10/15 05:10:42;;;;;;;9.50;5.60;;;;;;;13.91;100.00;101385.03;4995963;28;20030;-80
2021/10/15 05:13:07;;;;;;;8.25;5.63;;;;;;;14.19;100.00;101384.25;4962538;28;20034;-80
2021/10/15 05:15:33;;;;;;;8.25;3.78;;;;;;;13.50;100.00;101410.34;4995974;28;20085;-80
2021/10/15 05:17:58;;;;;;;3.45;1.50;;;;;;;12.82;100.00;101424.59;4995833;28;20032;-78
2021/10/15 05:20:24;;;;;;;2.58;0.82;;;;;;;12.12;100.00;101435.25;4978417;28;20022;-79
2021/10/15 05:22:49;;;;;;;2.08;0.70;;;;;;;11.88;100.00;101454.91;4978434;28;20014;-80
2021/10/15 05:25:14;;;;;;;2.63;0.90;;;;;;;11.92;100.00;101464.44;4996041;28;20377;-80
2021/10/15 05:27:40;;;;;;;5.00;1.10;;;;;;;11.81;100.00;101467.59;4995575;28;20082;-81
2021/10/15 05:30:06;;;;;;;3.65;0.98;;;;;;;11.80;100.00;101463.25;4995509;28;20393;-80
2021/10/15 05:32:33;;;;;;;5.22;1.20;;;;;;;11.72;100.00;101468.03;4995515;28;20458;-79
2021/10/15 05:34:58;;;;;;;4.00;1.15;;;;;;;11.64;100.00;101471.06;4995453;28;20479;-84
2021/10/15 05:37:24;;;;;;;2.90;0.70;;;;;;;11.48;100.00;101478.91;4995591;28;20026;-80
2021/10/15 05:39:49;;;;;;;4.72;0.73;;;;;;;11.52;100.00;101477.81;4995512;28;20031;-79
2021/10/15 05:42:14;;;;;;;3.25;0.70;;;;;;;11.50;100.00;101490.25;4995744;28;20056;-79
2021/10/15 05:44:40;;;;;;;3.92;0.60;;;;;;;11.43;100.00;101487.06;4995446;28;20030;-81
2021/10/15 05:47:05;;;;;;;2.75;0.80;;;;;;;11.50;100.00;101489.41;4978288;28;20081;-79
2021/10/15 05:49:31;;;;;;;4.85;0.85;;;;;;;11.65;100.00;101494.00;4995526;28;20031;-83
2021/10/15 05:52:09;;;;;;;2.45;0.80;;;;;;;11.70;100.00;101488.47;4993145;28;20088;-81
2021/10/15 06:00:04;;;;;;;3.70;1.00;;;;;;;11.51;100.00;101513.19;4995018;28;20106;-82
2021/10/15 06:02:34;;;;;;;3.25;1.10;;;;;;;11.62;100.00;101514.47;4999064;28;20030;-78
2021/10/15 06:15:56;;;;;;;6.05;1.08;;;;;;;11.47;100.00;101535.41;4995276;28;20030;-80
2021/10/15 06:18:23;;;;;;;10.55;1.30;;;;;;;11.65;100.00;101536.38;4995582;28;20330;-84
2021/10/15 06:20:51;;;;;;;6.47;1.50;;;;;;;11.65;100.00;101531.09;4977707;28;20030;-85
2021/10/15 06:23:17;;;;;;;5.95;1.00;;;;;;;11.93;99.54;101534.22;4977685;28;20034;-85
2021/10/15 06:25:43;;;;;;;5.63;1.38;;;;;;;11.83;98.42;101536.44;4977437;28;20181;-79
2021/10/15 06:28:10;;;;;;;3.97;1.13;;;;;;;11.64;99.02;101542.59;4994218;28;20452;-79
2021/10/15 06:30:35;;;;;;;9.57;1.33;;;;;;;11.73;98.92;101543.09;4994287;28;20046;-79
2021/10/15 06:33:01;;;;;;;8.85;1.20;;;;;;;11.78;98.70;101555.19;4994094;28;20030;-78
2021/10/15 06:35:26;;;;;;;5.85;1.08;;;;;;;11.90;98.24;101558.22;4994219;28;20038;-79
2021/10/15 06:37:52;;;;;;;10.82;1.17;;;;;;;11.94;98.27;101570.38;4976808;28;20102;-80
2021/10/15 06:40:18;;;;;;;7.65;1.33;;;;;;;11.87;98.11;101561.88;4993964;28;20109;-80
2021/10/15 06:42:43;;;;;;;5.68;1.58;;;;;;;11.93;98.12;101571.31;4994142;28;20045;-85
2021/10/15 06:45:09;;;;;;;6.75;1.65;;;;;;;11.96;97.90;101576.47;4994692;28;20030;-85
2021/10/15 06:47:35;;;;;;;5.72;1.17;;;;;;;12.15;97.10;101576.50;4994420;28;20588;-82
2021/10/15 06:52:48;;;;;;;11.50;1.88;;;;;;;12.51;95.58;101581.88;4995579;28;20465;-84
2021/10/15 06:55:17;;;;;;;9.00;2.17;;;;;;;12.41;94.68;101592.09;4995179;28;20030;-83
2021/10/15 06:57:43;;;;;;;11.63;1.80;;;;;;;12.20;95.03;101597.47;4978834;28;20030;-86
2021/10/15 07:00:09;;;;;;;7.80;1.10;;;;;;;11.74;96.18;101619.88;4995749;28;20033;-79
2021/10/15 07:02:34;;;;;;;3.50;1.10;;;;;;;11.63;97.18;101608.88;4994267;28;20027;-77
2021/10/15 07:05:00;;;;;;;6.00;1.02;;;;;;;11.73;97.08;101604.91;4976400;28;20167;-80
2021/10/15 07:07:25;;;;;;;7.35;1.67;;;;;;;11.89;96.02;101615.63;4976534;28;20030;-77
2021/10/15 07:09:51;;;;;;;3.80;1.00;;;;;;;12.16;96.56;101620.63;4993601;28;20034;-78
2021/10/15 07:12:16;;;;;;;5.05;1.15;;;;;;;12.07;96.31;101621.03;4993485;28;20033;-78
2021/10/15 07:14:42;;;;;;;2.67;1.02;;;;;;;12.31;96.14;101623.50;4976466;28;20026;-80
2021/10/15 07:17:07;;;;;;;4.22;1.45;;;;;;;12.56;94.00;101623.16;4976532;28;20026;-82
2021/10/15 07:19:32;;;;;;;6.65;1.27;;;;;;;12.43;94.23;101629.97;4993694;28;20053;-80
2021/10/15 07:21:58;;;;;;;3.63;1.13;;;;;;;12.39;94.25;101636.38;4993830;28;20038;-81
2021/10/15 07:24:23;;;;;;;5.88;1.10;;;;;;;12.45;94.13;101633.44;4993993;28;20481;-79
2021/10/15 07:26:49;;;;;;;8.18;1.30;;;;;;;12.28;94.48;101637.75;4995159;28;20508;-80
2021/10/15 07:29:14;;;;;;;6.10;1.10;;;;;;;12.43;94.26;101641.47;4994318;28;20523;-79
2021/10/15 07:31:40;;;;;;;5.47;0.93;;;;;;;12.46;93.88;101637.78;4975885;28;20380;-79
2021/10/15 07:34:05;;;;;;;11.48;1.98;;;;;;;12.64;92.21;101645.81;4993406;28;20362;-79
2021/10/15 07:36:31;;;;;;;6.32;1.40;;;;;;;12.50;92.06;101646.47;4975813;28;20027;-78
2021/10/15 07:38:57;;;;;;;9.02;1.38;;;;;;;12.52;91.39;101649.91;4993275;28;20045;-80
2021/10/15 07:41:22;;;;;;;6.25;1.25;;;;;;;12.64;90.26;101653.75;4993219;28;20026;-77
2021/10/15 07:43:50;;;;;;;7.65;1.45;;;;;;;12.66;89.39;101655.41;4992239;28;20030;-79
2021/10/15 07:46:17;;;;;;;7.95;1.38;;;;;;;12.49;88.96;101658.88;4993278;28;20105;-80
2021/10/15 07:48:42;;;;;;;6.43;1.20;;;;;;;12.67;88.54;101654.47;4975845;28;20023;-78
2021/10/15 07:51:07;;;;;;;8.63;1.33;;;;;;;12.66;88.48;101665.16;4993007;28;20041;-81
2021/10/15 07:53:33;;;;;;;8.30;1.27;;;;;;;12.87;88.68;101675.66;4993127;28;20022;-81
2021/10/15 07:55:58;;;;;;;10.07;1.35;;;;;;;12.77;87.98;101683.22;4993016;28;20061;-81
2021/10/15 07:58:24;;;;;;;9.57;1.45;;;;;;;12.71;86.50;101681.72;4992942;28;20092;-83
2021/10/15 08:00:52;;;;;;;6.32;1.10;;;;;;;12.65;85.95;101708.53;4993079;28;20030;-84
2021/10/15 08:03:18;;;;;;;11.82;1.95;;;;;;;12.52;84.96;101709.13;4992925;28;20069;-80
2021/10/15 08:05:43;;;;;;;8.15;1.30;;;;;;;12.42;84.75;101706.06;4975593;28;20026;-78
2021/10/15 08:08:08;;;;;;;9.48;1.30;;;;;;;12.61;84.17;101713.16;4975831;28;20033;-83
2021/10/15 08:10:34;;;;;;;6.80;1.40;;;;;;;12.52;83.23;101721.56;4992460;28;20047;-82
2021/10/15 08:13:01;;;;;;;7.22;1.33;;;;;;;12.91;82.61;101717.06;4993009;28;20376;-78
2021/10/15 08:15:27;;;;;;;9.95;1.60;;;;;;;12.78;80.14;101728.25;4997068;28;20176;-80
2021/10/15 08:17:53;;;;;;;10.00;2.10;;;;;;;12.86;79.41;101727.91;4999803;28;20034;-79
2021/10/15 08:20:20;;;;;;;9.98;1.77;;;;;;;12.94;78.03;101732.81;5000553;28;20072;-78
2021/10/15 08:22:48;;;;;;;6.22;1.10;;;;;;;12.88;76.87;101739.28;5001069;28;20489;-79
2021/10/15 08:25:14;;;;;;;7.43;1.52;;;;;;;12.77;75.12;101745.09;4983990;28;20051;-79
2021/10/15 08:27:39;;;;;;;7.18;1.20;;;;;;;13.10;74.43;101743.53;5019083;23;20050;-78
2021/10/15 08:30:05;;;;;;;8.52;1.40;;;;;;;13.20;73.89;101747.47;5002007;28;20058;-78
2021/10/15 08:32:31;;;;;;;5.97;1.08;;;;;;;13.12;73.95;101749.63;5000317;28;20068;-78
2021/10/15 08:34:56;;;;;;;9.00;1.33;;;;;;;13.17;72.21;101754.72;5017577;28;20034;-76
2021/10/15 08:37:22;;;;;;;8.20;1.50;;;;;;;13.26;72.33;101751.59;5001049;28;20057;-78
2021/10/15 08:39:47;;;;;;;5.50;1.30;;;;;;;13.33;72.07;101760.13;4975859;28;20409;-79
2021/10/15 08:42:13;;;;;;;6.80;1.30;;;;;;;13.15;72.34;101761.91;4992698;28;20022;-78
2021/10/15 08:44:41;;;;;;;7.85;1.27;;;;;;;13.07;72.22;101772.91;4992556;28;20037;-80
2021/10/15 08:47:07;;;;;;;8.30;1.55;;;;;;;13.36;72.32;101778.59;4993049;28;20030;-79
2021/10/15 08:49:32;;;;;;;10.93;1.80;;;;;;;13.41;70.74;101778.34;4992874;28;20030;-77
2021/10/15 08:51:58;;;;;;;6.25;1.85;;;;;;;13.42;69.52;101785.38;4992717;28;20110;-77
2021/10/15 08:54:23;;;;;;;5.95;1.27;;;;;;;13.69;69.53;101788.47;4993416;28;20076;-79
2021/10/15 08:56:49;;;;;;;7.15;1.05;;;;;;;13.62;69.83;101789.72;4996487;28;20022;-77
2021/10/15 08:59:19;;;;;;;3.35;1.00;;;;;;;14.18;69.68;101793.97;4996085;28;20041;-78
2021/10/15 09:01:46;;;;;;;9.63;1.60;;;;;;;14.16;69.30;101788.72;4996447;28;20433;-78
2021/10/15 09:04:16;;;;;;;10.32;1.27;;;;;;;14.24;67.99;101792.78;4978635;28;20470;-80
2021/10/15 09:06:41;;;;;;;6.68;1.67;;;;;;;14.19;67.98;101793.88;4989541;28;20437;-82
2021/10/15 09:09:07;;;;;;;4.53;1.25;;;;;;;14.40;67.06;101800.81;5016079;28;20093;-86
2021/10/15 09:11:46;;;;;;;6.88;1.17;;;;;;;14.08;64.51;101804.22;5015656;28;20036;-83
2021/10/15 09:14:22;;;;;;;6.53;1.25;;;;;;;14.22;65.89;101806.16;5015649;28;20040;-82
2021/10/15 09:17:14;;;;;;;6.78;1.50;;;;;;;14.44;65.93;101810.31;5015405;28;20040;-82
2021/10/15 09:19:43;;;;;;;9.55;1.73;;;;;;;14.43;64.26;101820.09;5015335;28;20041;-80
2021/10/15 09:22:20;;;;;;;8.02;1.20;;;;;;;14.16;62.66;101815.34;5015075;28;20456;-81
2021/10/15 09:24:47;;;;;;;6.80;1.00;;;;;;;14.31;61.67;101818.09;5015219;28;20039;-80
2021/10/15 09:27:33;;;;;;;6.70;1.27;;;;;;;14.57;63.37;101827.34;4997200;28;20049;-80
2021/10/15 09:30:00;;;;;;;9.57;1.30;;;;;;;14.18;63.26;101825.91;5014867;28;20141;-80
2021/10/15 09:32:30;;;;;;;9.55;1.35;;;;;;;14.00;63.79;101839.19;4997447;28;20109;-80
2021/10/15 09:34:56;;;;;;;10.38;1.15;;;;;;;13.92;64.56;101836.94;4997986;28;20022;-80
2021/10/15 09:37:29;;;;;;;6.35;1.20;;;;;;;13.74;64.82;101841.41;5007404;28;20496;-81
2021/10/15 09:40:05;;;;;;;;;;;;;;;13.74;66.48;101841.41;4994670;28;20105;-80
2021/10/15 09:42:31;;;;;;;4.85;1.30;;;;;;;14.10;66.70;101849.38;4993852;28;20407;-82
2021/10/15 09:45:04;;;;;;;6.68;1.50;;;;;;;14.08;63.00;101837.00;4995352;28;20026;-81
2021/10/15 09:47:30;;;;;;;5.35;1.33;;;;;;;14.28;62.90;101836.88;4995327;28;20059;-83
2021/10/15 09:50:06;;;;;;;3.92;1.00;;;;;;;14.04;62.90;101840.75;4995133;28;20359;-79
2021/10/15 09:52:38;;;;;;;8.57;1.20;;;;;;;14.12;61.61;101847.50;4994554;28;20132;-80
2021/10/15 09:55:09;;;;;;;8.50;1.05;;;;;;;14.39;62.26;101844.28;4995037;28;20029;-80
2021/10/15 09:57:38;;;;;;;5.47;1.65;;;;;;;14.51;62.44;101851.63;4993971;28;20092;-78
2021/10/15 10:00:07;;;;;;;10.07;1.42;;;;;;;14.48;62.43;101854.44;4993618;28;20393;-79
2021/10/15 10:02:33;;;;;;;9.00;1.63;;;;;;;14.73;62.86;101854.94;4995198;28;20417;-80
2021/10/15 10:04:58;;;;;;;8.98;1.45;;;;;;;14.70;61.20;101863.97;4995005;28;20022;-81
2021/10/15 10:07:24;;;;;;;6.13;1.27;;;;;;;14.87;58.81;101854.22;4995971;28;20034;-81
2021/10/15 10:09:50;;;;;;;9.90;1.55;;;;;;;15.17;56.96;101856.97;5014087;28;20030;-81
2021/10/15 10:12:16;;;;;;;7.28;1.38;;;;;;;15.22;57.63;101858.53;5014210;28;20045;-80
2021/10/15 10:14:41;;;;;;;13.63;1.70;;;;;;;15.15;60.01;101869.53;5014054;28;20026;-80
2021/10/15 10:17:08;;;;;;;14.55;2.17;;;;;;;14.58;60.75;101870.78;5014081;28;20108;-82
2021/10/15 10:19:36;;;;;;;13.68;1.90;;;;;;;15.30;60.46;101878.44;4997007;28;20106;-81
2021/10/15 10:22:02;;;;;;;11.32;1.67;;;;;;;14.66;61.39;101881.03;4964694;28;20021;-81
2021/10/15 10:24:31;;;;;;;10.38;1.92;;;;;;;14.69;60.42;101891.50;5013453;28;20392;-80
2021/10/15 10:26:56;;;;;;;11.77;1.83;;;;;;;14.62;60.70;101890.13;4996249;28;20281;-79
2021/10/15 10:29:22;;;;;;;8.73;1.95;;;;;;;14.05;62.05;101890.38;5014002;28;20484;-80
2021/10/15 10:31:47;;;;;;;13.88;2.30;;;;;;;14.12;62.42;101898.03;4980172;28;20021;-79
2021/10/15 10:34:26;;;;;;;11.07;1.63;;;;;;;14.77;61.78;101891.97;5013792;28;20476;-79
2021/10/15 10:37:04;;;;;;;12.95;1.77;;;;;;;15.00;59.58;101899.69;5001664;28;20096;-80
2021/10/15 10:39:30;;;;;;;13.35;2.17;;;;;;;15.01;58.76;101898.72;4994311;28;20056;-80
2021/10/15 10:42:07;;;;;;;9.80;2.00;;;;;;;14.80;55.77;101909.59;4994165;28;20113;-82
2021/10/15 10:44:39;;;;;;;9.73;1.50;;;;;;;15.31;53.58;101912.13;4993998;28;20037;-81
2021/10/15 10:47:20;;;;;;;10.63;2.42;;;;;;;14.90;52.83;101915.31;4994074;28;20054;-80
2021/10/15 10:50:05;;;;;;;5.95;1.50;;;;;;;14.61;53.38;101928.31;4993874;28;20104;-81
2021/10/15 10:52:42;;;;;;;12.98;1.67;;;;;;;14.97;53.71;101922.00;4993506;28;20065;-80
2021/10/15 10:55:07;;;;;;;9.52;2.00;;;;;;;14.85;53.46;101925.31;4993947;28;20030;-81
2021/10/15 10:57:40;;;;;;;11.15;1.67;;;;;;;14.81;53.22;101920.16;4992652;28;20080;-81
2021/10/15 11:00:16;;;;;;;;;;;;;;;14.68;52.41;101935.06;4994299;28;20390;-80
2021/10/15 11:02:54;;;;;;;7.90;1.45;;;;;;;15.05;49.55;101933.09;4993806;28;20000;-80
2021/10/15 11:05:42;;;;;;;7.50;1.30;;;;;;;14.78;48.55;101948.75;4993483;28;20026;-79
2021/10/15 11:08:22;;;;;;;9.27;1.60;;;;;;;14.86;48.08;101946.53;4991875;28;20045;-80
2021/10/15 11:11:13;;;;;;;6.38;1.50;;;;;;;15.19;46.53;101952.78;4993648;28;20117;-81
2021/10/15 11:13:38;;;;;;;7.18;1.20;;;;;;;15.19;45.97;101956.31;4993417;28;20037;-83
2021/10/15 11:16:20;;;;;;;8.73;1.63;;;;;;;15.18;45.49;101959.06;4994069;28;20030;-81
2021/10/15 11:18:46;;;;;;;6.07;1.50;;;;;;;15.31;45.09;101960.09;4993378;28;20026;-80
2021/10/15 11:21:12;;;;;;;7.47;1.55;;;;;;;14.91;46.51;101957.81;4993453;28;20038;-80
2021/10/15 11:23:39;;;;;;;4.03;1.30;;;;;;;15.01;47.56;101967.97;4993506;28;20022;-81
2021/10/15 11:26:05;;;;;;;7.95;1.85;;;;;;;15.26;48.36;101958.66;4993360;28;20029;-80
2021/10/15 11:28:31;;;;;;;10.38;1.95;;;;;;;15.44;47.05;101964.75;4993496;28;20050;-79
2021/10/15 11:30:56;;;;;;;8.27;1.40;;;;;;;15.88;46.90;101967.63;4993373;28;20052;-80
2021/10/15 11:33:22;;;;;;;8.05;1.67;;;;;;;15.64;47.64;101973.44;4976042;28;20401;-80
2021/10/15 11:35:52;;;;;;;9.77;1.52;;;;;;;15.85;47.48;101981.16;4978898;28;20029;-81
2021/10/15 11:38:22;;;;;;;13.95;1.75;;;;;;;15.27;49.00;101989.66;5012582;28;20026;-80
2021/10/15 11:40:54;;;;;;;9.90;1.58;;;;;;;15.61;50.15;101986.94;5012828;28;20125;-80